Santa Barbara — 3FWW8 — position and weather

sailwx.info

Track history (hours):
 
Tides and Currents Weather Stations Pressure Air Temp Water Temp Dewpoint Dewpoint Depression Visibility Wind Speed Wind Dir Waves Ship Positions

Santa Barbara

Last reported at 2014-Oct-27 19:31 UTC. Time now 2014-Oct-30 16:01 UTC.
Position N 46°35' W 125°13'.

Length 225 m; draft 13.1 m.

Type: Cargo ship. MMSI: 372230000.

Date/timePositionNaut miles runAvg speedWind from/ knotsBaromVisibWave heightAir tempDewpointWater temp
2014-Oct-27 19:31N 46°35' W 125°13'1313.8
2014-Oct-27 18:33N 46°27' W 124°58'1413.9
2014-Oct-27 17:32N 46°18' W 124°41'1414.0
2014-Oct-27 16:33N 46°13' W 124°23'1111.5
2014-Oct-27 15:34N 46°14' W 124°07'1010.0
2014-Oct-27 14:34N 46°11' W 123°53'9 8.8
2014-Oct-27 13:34N 46°15' W 123°41'9 9.3
2014-Oct-27 12:34N 46°16' W 123°28'9 8.7
2014-Oct-27 11:34N 46°09' W 123°21'10 9.9
2014-Oct-27 10:33N 46°11' W 123°08'9 8.3
2014-Oct-27 09:28N 46°06' W 122°57'0 0.1
2014-Oct-27 08:25N 46°06' W 122°57'0 0.0
2014-Oct-27 07:31N 46°06' W 122°57'0 0.0
2014-Oct-27 06:31N 46°06' W 122°57'0 0.0
2014-Oct-27 05:31N 46°06' W 122°57'0 0.0
2014-Oct-27 04:28N 46°06' W 122°57'0 0.0
2014-Oct-27 03:31N 46°06' W 122°57'0 0.0
2014-Oct-27 02:31N 46°06' W 122°57'0 0.4
2014-Oct-27 01:33N 46°06' W 122°56'0 0.0
2014-Oct-27 00:33N 46°06' W 122°56'0 0.0
2014-Oct-26 23:33N 46°06' W 122°56'0 0.0
2014-Oct-26 22:33N 46°06' W 122°56'0 0.0
2014-Oct-26 21:30N 46°06' W 122°56'0 0.0
2014-Oct-26 20:33N 46°06' W 122°56'0 0.0
2014-Oct-26 19:33N 46°06' W 122°56'0 0.0
2014-Oct-26 18:33N 46°06' W 122°56'0 0.0
2014-Oct-26 17:33N 46°06' W 122°56'0 0.0
2014-Oct-26 16:33N 46°06' W 122°56'0 0.0
2014-Oct-26 15:30N 46°06' W 122°56'0 0.0
2014-Oct-26 14:33N 46°06' W 122°56'0 0.0
2014-Oct-26 13:33N 46°06' W 122°56'0 0.0
2014-Oct-26 12:33N 46°06' W 122°56'0 0.0
2014-Oct-26 11:30N 46°06' W 122°56'0 0.0
2014-Oct-26 10:27N 46°06' W 122°56'0 0.0
2014-Oct-26 09:33N 46°06' W 122°56'0 0.0
2014-Oct-26 08:33N 46°06' W 122°56'0 0.0
2014-Oct-26 07:33N 46°06' W 122°56'0 0.0
2014-Oct-26 06:33N 46°06' W 122°56'0 0.0
2014-Oct-26 05:33N 46°06' W 122°56'0 0.0
2014-Oct-26 04:30N 46°06' W 122°56'0 0.0
2014-Oct-26 03:33N 46°06' W 122°56'0 0.0
2014-Oct-26 02:33N 46°06' W 122°56'0 0.0
2014-Oct-26 01:33N 46°06' W 122°56'0 0.0
2014-Oct-26 00:30N 46°06' W 122°56'0 0.0
2014-Oct-25 23:33N 46°06' W 122°56'0 0.0
2014-Oct-25 22:27N 46°06' W 122°56'0 0.0
2014-Oct-25 21:30N 46°06' W 122°56'0 0.0
2014-Oct-25 20:24N 46°06' W 122°56'0 0.0
2014-Oct-25 19:33N 46°06' W 122°56'29 1.1
2014-Oct-24 16:24N 45°39' W 122°44'0 0.0
2014-Oct-24 11:05N 45°39' W 122°44'0 0.0
2014-Oct-24 10:17N 45°39' W 122°44'0 0.0
2014-Oct-23 17:17N 45°39' W 122°44'0 0.0
2014-Oct-23 15:05N 45°39' W 122°44'0 0.0
2014-Oct-23 06:05N 45°39' W 122°44'0 0.0
2014-Oct-23 05:17N 45°39' W 122°44'7 6.8
2014-Oct-23 04:15N 45°46' W 122°46'44 9.3
2014-Oct-22 23:34N 46°16' W 123°30'1211.8
2014-Oct-22 22:34N 46°13' W 123°47'8 8.5
2014-Oct-22 21:34N 46°14' W 123°59'1010.1
2014-Oct-22 20:33N 46°12' W 124°13'7 6.4
2014-Oct-22 19:30N 46°07' W 124°20'10 0.4
2014-Oct-21 21:15N 45°58' W 124°17'4 5.5
2014-Oct-21 20:33N 45°58' W 124°12'4 3.4
2014-Oct-21 19:30N 45°55' W 124°15'9 0.7
2014-Oct-21 07:10N 45°59' W 124°26'4 7.4
2014-Oct-21 06:34N 46°02' W 124°21'10 8.2
2014-Oct-21 05:18N 46°09' W 124°32'  
Track history (hours):
 
Tides and Currents Weather Stations Pressure Air Temp Water Temp Dewpoint Dewpoint Depression Visibility Wind Speed Wind Dir Waves Ship Positions

Santa Barbara

Last reported at 2014-Oct-27 19:31 UTC. Time now 2014-Oct-30 16:01 UTC.
Position N 46°35' W 125°13'.

Length 225 m; draft 13.1 m.

Type: Cargo ship. MMSI: 372230000.

Date/timePositionNaut miles runAvg speedWind from/ knotsBaromVisibWave heightAir tempDewpointWater temp
2014-Oct-27 19:31N 46°35' W 125°13'1313.8
2014-Oct-27 18:33N 46°27' W 124°58'1413.9
2014-Oct-27 17:32N 46°18' W 124°41'1414.0
2014-Oct-27 16:33N 46°13' W 124°23'1111.5
2014-Oct-27 15:34N 46°14' W 124°07'1010.0
2014-Oct-27 14:34N 46°11' W 123°53'9 8.8
2014-Oct-27 13:34N 46°15' W 123°41'9 9.3
2014-Oct-27 12:34N 46°16' W 123°28'9 8.7
2014-Oct-27 11:34N 46°09' W 123°21'10 9.9
2014-Oct-27 10:33N 46°11' W 123°08'9 8.3
2014-Oct-27 09:28N 46°06' W 122°57'0 0.1
2014-Oct-27 08:25N 46°06' W 122°57'0 0.0
2014-Oct-27 07:31N 46°06' W 122°57'0 0.0
2014-Oct-27 06:31N 46°06' W 122°57'0 0.0
2014-Oct-27 05:31N 46°06' W 122°57'0 0.0
2014-Oct-27 04:28N 46°06' W 122°57'0 0.0
2014-Oct-27 03:31N 46°06' W 122°57'0 0.0
2014-Oct-27 02:31N 46°06' W 122°57'0 0.4
2014-Oct-27 01:33N 46°06' W 122°56'0 0.0
2014-Oct-27 00:33N 46°06' W 122°56'0 0.0
2014-Oct-26 23:33N 46°06' W 122°56'0 0.0
2014-Oct-26 22:33N 46°06' W 122°56'0 0.0
2014-Oct-26 21:30N 46°06' W 122°56'0 0.0
2014-Oct-26 20:33N 46°06' W 122°56'0 0.0
2014-Oct-26 19:33N 46°06' W 122°56'0 0.0
2014-Oct-26 18:33N 46°06' W 122°56'0 0.0
2014-Oct-26 17:33N 46°06' W 122°56'0 0.0
2014-Oct-26 16:33N 46°06' W 122°56'0 0.0
2014-Oct-26 15:30N 46°06' W 122°56'0 0.0
2014-Oct-26 14:33N 46°06' W 122°56'0 0.0
2014-Oct-26 13:33N 46°06' W 122°56'0 0.0
2014-Oct-26 12:33N 46°06' W 122°56'0 0.0
2014-Oct-26 11:30N 46°06' W 122°56'0 0.0
2014-Oct-26 10:27N 46°06' W 122°56'0 0.0
2014-Oct-26 09:33N 46°06' W 122°56'0 0.0
2014-Oct-26 08:33N 46°06' W 122°56'0 0.0
2014-Oct-26 07:33N 46°06' W 122°56'0 0.0
2014-Oct-26 06:33N 46°06' W 122°56'0 0.0
2014-Oct-26 05:33N 46°06' W 122°56'0 0.0
2014-Oct-26 04:30N 46°06' W 122°56'0 0.0
2014-Oct-26 03:33N 46°06' W 122°56'0 0.0
2014-Oct-26 02:33N 46°06' W 122°56'0 0.0
2014-Oct-26 01:33N 46°06' W 122°56'0 0.0
2014-Oct-26 00:30N 46°06' W 122°56'0 0.0
2014-Oct-25 23:33N 46°06' W 122°56'0 0.0
2014-Oct-25 22:27N 46°06' W 122°56'0 0.0
2014-Oct-25 21:30N 46°06' W 122°56'0 0.0
2014-Oct-25 20:24N 46°06' W 122°56'0 0.0
2014-Oct-25 19:33N 46°06' W 122°56'29 1.1
2014-Oct-24 16:24N 45°39' W 122°44'0 0.0
2014-Oct-24 11:05N 45°39' W 122°44'0 0.0
2014-Oct-24 10:17N 45°39' W 122°44'0 0.0
2014-Oct-23 17:17N 45°39' W 122°44'0 0.0
2014-Oct-23 15:05N 45°39' W 122°44'0 0.0
2014-Oct-23 06:05N 45°39' W 122°44'0 0.0
2014-Oct-23 05:17N 45°39' W 122°44'7 6.8
2014-Oct-23 04:15N 45°46' W 122°46'44 9.3
2014-Oct-22 23:34N 46°16' W 123°30'1211.8
2014-Oct-22 22:34N 46°13' W 123°47'8 8.5
2014-Oct-22 21:34N 46°14' W 123°59'1010.1
2014-Oct-22 20:33N 46°12' W 124°13'7 6.4
2014-Oct-22 19:30N 46°07' W 124°20'10 0.4
2014-Oct-21 21:15N 45°58' W 124°17'4 5.5
2014-Oct-21 20:33N 45°58' W 124°12'4 3.4
2014-Oct-21 19:30N 45°55' W 124°15'9 0.7
2014-Oct-21 07:10N 45°59' W 124°26'4 7.4
2014-Oct-21 06:34N 46°02' W 124°21'10 8.2
2014-Oct-21 05:18N 46°09' W 124°32'  

Dump ship's entire track history